sensor_id;sensor_type;location;lat;lon;timestamp;P1;durP1;ratioP1;P2;durP2;ratioP2
60502;SDS011;51448;51.660;5.824;2024-03-23T00:54:30;9.15;;;3.90;;
60502;SDS011;51448;51.660;5.824;2024-03-23T00:56:57;16.38;;;4.50;;
60502;SDS011;51448;51.660;5.824;2024-03-23T00:59:23;16.70;;;4.68;;
60502;SDS011;51448;51.660;5.824;2024-03-23T01:01:53;12.32;;;4.20;;
60502;SDS011;51448;51.660;5.824;2024-03-23T01:04:21;15.15;;;4.97;;
60502;SDS011;51448;51.660;5.824;2024-03-23T01:06:47;12.48;;;5.00;;
60502;SDS011;51448;51.660;5.824;2024-03-23T01:09:14;14.80;;;4.35;;
60502;SDS011;51448;51.660;5.824;2024-03-23T01:11:41;16.75;;;5.03;;
60502;SDS011;51448;51.660;5.824;2024-03-23T01:14:07;10.85;;;4.75;;
60502;SDS011;51448;51.660;5.824;2024-03-23T01:16:34;10.15;;;4.88;;
60502;SDS011;51448;51.660;5.824;2024-03-23T01:19:01;12.90;;;4.95;;
60502;SDS011;51448;51.660;5.824;2024-03-23T01:21:27;15.18;;;4.50;;
60502;SDS011;51448;51.660;5.824;2024-03-23T01:23:54;12.55;;;4.78;;
60502;SDS011;51448;51.660;5.824;2024-03-23T01:26:21;11.63;;;3.97;;
60502;SDS011;51448;51.660;5.824;2024-03-23T01:28:48;20.10;;;4.88;;
60502;SDS011;51448;51.660;5.824;2024-03-23T01:31:15;15.73;;;4.63;;
60502;SDS011;51448;51.660;5.824;2024-03-23T01:33:42;10.73;;;4.43;;
60502;SDS011;51448;51.660;5.824;2024-03-23T01:36:08;13.68;;;4.82;;
60502;SDS011;51448;51.660;5.824;2024-03-23T01:38:35;14.05;;;5.22;;
60502;SDS011;51448;51.660;5.824;2024-03-23T01:41:02;13.35;;;4.85;;
60502;SDS011;51448;51.660;5.824;2024-03-23T01:43:29;14.90;;;5.00;;
60502;SDS011;51448;51.660;5.824;2024-03-23T01:45:56;17.77;;;4.97;;
60502;SDS011;51448;51.660;5.824;2024-03-23T01:48:22;15.27;;;4.97;;
60502;SDS011;51448;51.660;5.824;2024-03-23T01:50:50;15.40;;;5.47;;
60502;SDS011;51448;51.660;5.824;2024-03-23T01:53:17;15.23;;;5.60;;
60502;SDS011;51448;51.660;5.824;2024-03-23T01:55:47;19.63;;;5.50;;
60502;SDS011;51448;51.660;5.824;2024-03-23T01:58:16;14.32;;;5.18;;
60502;SDS011;51448;51.660;5.824;2024-03-23T02:00:43;16.48;;;5.68;;
60502;SDS011;51448;51.660;5.824;2024-03-23T02:03:22;19.30;;;6.82;;
60502;SDS011;51448;51.660;5.824;2024-03-23T02:05:54;19.45;;;5.95;;
60502;SDS011;51448;51.660;5.824;2024-03-23T02:08:22;14.55;;;5.97;;
60502;SDS011;51448;51.660;5.824;2024-03-23T02:10:50;11.52;;;5.70;;
60502;SDS011;51448;51.660;5.824;2024-03-23T02:13:17;16.13;;;7.35;;
60502;SDS011;51448;51.660;5.824;2024-03-23T02:15:45;13.60;;;6.40;;
60502;SDS011;51448;51.660;5.824;2024-03-23T02:18:12;14.57;;;6.15;;
60502;SDS011;51448;51.660;5.824;2024-03-23T02:20:38;20.88;;;5.93;;
60502;SDS011;51448;51.660;5.824;2024-03-23T02:23:05;14.48;;;5.78;;
60502;SDS011;51448;51.660;5.824;2024-03-23T02:25:38;15.32;;;5.25;;
60502;SDS011;51448;51.660;5.824;2024-03-23T02:28:05;15.68;;;5.32;;
60502;SDS011;51448;51.660;5.824;2024-03-23T02:30:32;17.10;;;6.75;;
60502;SDS011;51448;51.660;5.824;2024-03-23T02:32:59;15.55;;;5.07;;
60502;SDS011;51448;51.660;5.824;2024-03-23T02:35:26;15.75;;;4.95;;
60502;SDS011;51448;51.660;5.824;2024-03-23T02:37:52;14.82;;;5.25;;
60502;SDS011;51448;51.660;5.824;2024-03-23T02:40:20;11.35;;;3.83;;
60502;SDS011;51448;51.660;5.824;2024-03-23T02:42:47;13.75;;;4.93;;
60502;SDS011;51448;51.660;5.824;2024-03-23T02:45:13;18.38;;;5.93;;
60502;SDS011;51448;51.660;5.824;2024-03-23T02:47:40;22.17;;;5.70;;
60502;SDS011;51448;51.660;5.824;2024-03-23T02:50:07;18.27;;;5.55;;
60502;SDS011;51448;51.660;5.824;2024-03-23T02:52:35;15.05;;;5.22;;
60502;SDS011;51448;51.660;5.824;2024-03-23T02:55:03;13.20;;;4.68;;
60502;SDS011;51448;51.660;5.824;2024-03-23T02:57:32;16.23;;;6.13;;
60502;SDS011;51448;51.660;5.824;2024-03-23T02:59:59;17.85;;;5.47;;
60502;SDS011;51448;51.660;5.824;2024-03-23T03:02:25;16.88;;;5.70;;
60502;SDS011;51448;51.660;5.824;2024-03-23T03:04:52;18.63;;;5.63;;
60502;SDS011;51448;51.660;5.824;2024-03-23T03:07:19;16.23;;;5.30;;
60502;SDS011;51448;51.660;5.824;2024-03-23T03:09:45;17.23;;;5.80;;
60502;SDS011;51448;51.660;5.824;2024-03-23T03:12:12;18.73;;;5.50;;
60502;SDS011;51448;51.660;5.824;2024-03-23T03:14:39;14.07;;;4.95;;
60502;SDS011;51448;51.660;5.824;2024-03-23T03:17:05;17.35;;;5.50;;
60502;SDS011;51448;51.660;5.824;2024-03-23T03:19:32;17.98;;;5.97;;
60502;SDS011;51448;51.660;5.824;2024-03-23T03:21:59;14.57;;;5.35;;
60502;SDS011;51448;51.660;5.824;2024-03-23T03:24:25;16.35;;;5.93;;
60502;SDS011;51448;51.660;5.824;2024-03-23T03:26:52;17.35;;;7.45;;
60502;SDS011;51448;51.660;5.824;2024-03-23T03:29:19;17.23;;;6.30;;
60502;SDS011;51448;51.660;5.824;2024-03-23T03:31:46;14.35;;;6.28;;
60502;SDS011;51448;51.660;5.824;2024-03-23T03:34:12;16.60;;;6.88;;
60502;SDS011;51448;51.660;5.824;2024-03-23T03:36:39;16.52;;;6.63;;
60502;SDS011;51448;51.660;5.824;2024-03-23T03:39:06;20.38;;;7.45;;
60502;SDS011;51448;51.660;5.824;2024-03-23T03:41:33;18.63;;;7.75;;
60502;SDS011;51448;51.660;5.824;2024-03-23T03:43:59;20.90;;;6.68;;
60502;SDS011;51448;51.660;5.824;2024-03-23T03:46:29;18.10;;;7.47;;
60502;SDS011;51448;51.660;5.824;2024-03-23T03:48:55;17.20;;;7.07;;
60502;SDS011;51448;51.660;5.824;2024-03-23T03:51:22;14.98;;;6.72;;
60502;SDS011;51448;51.660;5.824;2024-03-23T03:53:49;22.95;;;8.07;;
60502;SDS011;51448;51.660;5.824;2024-03-23T03:56:15;17.48;;;5.82;;
60502;SDS011;51448;51.660;5.824;2024-03-23T03:58:42;18.52;;;6.72;;
60502;SDS011;51448;51.660;5.824;2024-03-23T04:01:09;15.50;;;6.38;;
60502;SDS011;51448;51.660;5.824;2024-03-23T04:03:36;17.98;;;6.97;;
60502;SDS011;51448;51.660;5.824;2024-03-23T04:06:02;18.58;;;5.75;;
60502;SDS011;51448;51.660;5.824;2024-03-23T04:08:29;11.90;;;5.95;;
60502;SDS011;51448;51.660;5.824;2024-03-23T04:10:56;20.75;;;6.88;;
60502;SDS011;51448;51.660;5.824;2024-03-23T04:13:23;14.00;;;5.38;;
60502;SDS011;51448;51.660;5.824;2024-03-23T04:15:53;16.75;;;4.95;;
60502;SDS011;51448;51.660;5.824;2024-03-23T04:18:23;18.02;;;6.00;;
60502;SDS011;51448;51.660;5.824;2024-03-23T04:20:50;16.80;;;6.18;;
60502;SDS011;51448;51.660;5.824;2024-03-23T04:23:18;18.73;;;5.35;;
60502;SDS011;51448;51.660;5.824;2024-03-23T04:25:44;15.75;;;5.82;;
60502;SDS011;51448;51.660;5.824;2024-03-23T04:28:11;13.60;;;5.30;;
60502;SDS011;51448;51.660;5.824;2024-03-23T04:30:37;18.10;;;5.13;;
60502;SDS011;51448;51.660;5.824;2024-03-23T04:33:04;18.73;;;6.07;;
60502;SDS011;51448;51.660;5.824;2024-03-23T04:35:31;21.23;;;6.15;;
60502;SDS011;51448;51.660;5.824;2024-03-23T04:37:57;10.68;;;4.60;;
60502;SDS011;51448;51.660;5.824;2024-03-23T04:40:27;15.95;;;5.88;;
60502;SDS011;51448;51.660;5.824;2024-03-23T04:42:53;15.90;;;5.55;;
60502;SDS011;51448;51.660;5.824;2024-03-23T04:45:20;14.07;;;4.93;;
60502;SDS011;51448;51.660;5.824;2024-03-23T04:47:48;14.38;;;5.10;;
60502;SDS011;51448;51.660;5.824;2024-03-23T04:50:15;12.70;;;5.15;;
60502;SDS011;51448;51.660;5.824;2024-03-23T04:52:42;16.42;;;5.22;;
60502;SDS011;51448;51.660;5.824;2024-03-23T04:55:09;16.33;;;5.47;;
60502;SDS011;51448;51.660;5.824;2024-03-23T04:57:36;13.98;;;4.60;;
60502;SDS011;51448;51.660;5.824;2024-03-23T05:00:02;13.90;;;5.03;;
60502;SDS011;51448;51.660;5.824;2024-03-23T05:02:39;12.57;;;4.22;;
60502;SDS011;51448;51.660;5.824;2024-03-23T05:05:05;15.02;;;4.38;;
60502;SDS011;51448;51.660;5.824;2024-03-23T05:07:33;11.30;;;4.05;;
60502;SDS011;51448;51.660;5.824;2024-03-23T05:10:00;15.45;;;5.70;;
60502;SDS011;51448;51.660;5.824;2024-03-23T05:12:27;19.13;;;4.55;;
60502;SDS011;51448;51.660;5.824;2024-03-23T05:14:53;15.60;;;4.18;;
60502;SDS011;51448;51.660;5.824;2024-03-23T05:17:20;14.48;;;4.15;;
60502;SDS011;51448;51.660;5.824;2024-03-23T05:19:46;14.13;;;4.70;;
60502;SDS011;51448;51.660;5.824;2024-03-23T05:22:13;12.07;;;4.07;;
60502;SDS011;51448;51.660;5.824;2024-03-23T05:24:40;14.27;;;4.00;;
60502;SDS011;51448;51.660;5.824;2024-03-23T05:27:06;12.50;;;4.13;;
60502;SDS011;51448;51.660;5.824;2024-03-23T05:29:33;16.38;;;4.80;;
60502;SDS011;51448;51.660;5.824;2024-03-23T05:32:00;15.38;;;4.10;;
60502;SDS011;51448;51.660;5.824;2024-03-23T05:34:26;17.88;;;4.47;;
60502;SDS011;51448;51.660;5.824;2024-03-23T05:36:54;19.30;;;5.28;;
60502;SDS011;51448;51.660;5.824;2024-03-23T05:39:21;16.02;;;5.57;;
60502;SDS011;51448;51.660;5.824;2024-03-23T05:41:48;12.75;;;4.18;;
60502;SDS011;51448;51.660;5.824;2024-03-23T05:44:15;13.07;;;4.45;;
60502;SDS011;51448;51.660;5.824;2024-03-23T05:46:42;12.27;;;4.28;;
60502;SDS011;51448;51.660;5.824;2024-03-23T05:49:08;13.75;;;4.88;;
60502;SDS011;51448;51.660;5.824;2024-03-23T05:51:35;16.73;;;5.72;;
60502;SDS011;51448;51.660;5.824;2024-03-23T05:54:02;15.20;;;5.28;;
60502;SDS011;51448;51.660;5.824;2024-03-23T05:56:28;11.63;;;4.45;;
60502;SDS011;51448;51.660;5.824;2024-03-23T05:58:55;11.50;;;5.15;;
60502;SDS011;51448;51.660;5.824;2024-03-23T06:01:21;14.70;;;6.25;;
60502;SDS011;51448;51.660;5.824;2024-03-23T06:03:48;18.75;;;5.65;;
60502;SDS011;51448;51.660;5.824;2024-03-23T06:06:15;20.65;;;5.35;;
60502;SDS011;51448;51.660;5.824;2024-03-23T06:08:42;22.17;;;7.75;;
60502;SDS011;51448;51.660;5.824;2024-03-23T06:11:08;18.95;;;6.57;;
60502;SDS011;51448;51.660;5.824;2024-03-23T06:13:35;19.23;;;5.78;;
60502;SDS011;51448;51.660;5.824;2024-03-23T06:16:02;17.02;;;5.68;;
60502;SDS011;51448;51.660;5.824;2024-03-23T06:18:29;19.20;;;7.10;;
60502;SDS011;51448;51.660;5.824;2024-03-23T06:20:56;15.98;;;6.70;;
60502;SDS011;51448;51.660;5.824;2024-03-23T06:23:23;20.08;;;7.20;;
60502;SDS011;51448;51.660;5.824;2024-03-23T06:25:50;17.77;;;7.63;;
60502;SDS011;51448;51.660;5.824;2024-03-23T06:28:16;19.00;;;7.05;;
60502;SDS011;51448;51.660;5.824;2024-03-23T06:30:44;20.92;;;7.38;;
60502;SDS011;51448;51.660;5.824;2024-03-23T06:33:11;16.60;;;7.20;;
60502;SDS011;51448;51.660;5.824;2024-03-23T06:35:37;18.80;;;6.57;;
60502;SDS011;51448;51.660;5.824;2024-03-23T06:38:04;19.48;;;7.93;;
60502;SDS011;51448;51.660;5.824;2024-03-23T06:40:31;15.55;;;7.95;;
60502;SDS011;51448;51.660;5.824;2024-03-23T06:42:57;15.35;;;7.20;;
60502;SDS011;51448;51.660;5.824;2024-03-23T06:45:24;17.13;;;7.30;;
60502;SDS011;51448;51.660;5.824;2024-03-23T06:47:51;19.95;;;7.35;;
60502;SDS011;51448;51.660;5.824;2024-03-23T06:50:18;15.20;;;7.47;;
60502;SDS011;51448;51.660;5.824;2024-03-23T06:52:45;22.52;;;9.10;;
60502;SDS011;51448;51.660;5.824;2024-03-23T06:55:11;19.88;;;8.10;;
60502;SDS011;51448;51.660;5.824;2024-03-23T06:57:38;14.65;;;7.38;;
60502;SDS011;51448;51.660;5.824;2024-03-23T07:00:05;22.88;;;8.70;;
60502;SDS011;51448;51.660;5.824;2024-03-23T07:02:36;20.77;;;7.53;;
60502;SDS011;51448;51.660;5.824;2024-03-23T07:05:02;18.20;;;7.13;;
60502;SDS011;51448;51.660;5.824;2024-03-23T07:07:29;15.65;;;6.90;;
60502;SDS011;51448;51.660;5.824;2024-03-23T07:09:56;14.52;;;6.40;;
60502;SDS011;51448;51.660;5.824;2024-03-23T07:12:23;17.60;;;7.13;;
60502;SDS011;51448;51.660;5.824;2024-03-23T07:14:49;15.65;;;6.68;;
60502;SDS011;51448;51.660;5.824;2024-03-23T07:17:16;21.23;;;5.88;;
60502;SDS011;51448;51.660;5.824;2024-03-23T07:19:44;16.63;;;5.15;;
60502;SDS011;51448;51.660;5.824;2024-03-23T07:22:12;24.13;;;5.40;;
60502;SDS011;51448;51.660;5.824;2024-03-23T07:24:40;14.32;;;5.45;;
60502;SDS011;51448;51.660;5.824;2024-03-23T07:27:07;11.15;;;5.43;;
60502;SDS011;51448;51.660;5.824;2024-03-23T07:29:36;20.23;;;6.32;;
60502;SDS011;51448;51.660;5.824;2024-03-23T07:32:03;14.63;;;5.50;;
60502;SDS011;51448;51.660;5.824;2024-03-23T07:34:30;17.80;;;6.80;;
60502;SDS011;51448;51.660;5.824;2024-03-23T07:36:56;16.95;;;5.30;;
60502;SDS011;51448;51.660;5.824;2024-03-23T07:39:23;14.68;;;4.80;;
60502;SDS011;51448;51.660;5.824;2024-03-23T07:41:50;14.77;;;3.72;;
60502;SDS011;51448;51.660;5.824;2024-03-23T07:44:17;11.20;;;4.65;;
60502;SDS011;51448;51.660;5.824;2024-03-23T07:46:44;13.77;;;3.90;;
60502;SDS011;51448;51.660;5.824;2024-03-23T07:49:11;11.30;;;3.10;;
60502;SDS011;51448;51.660;5.824;2024-03-23T07:51:37;11.98;;;4.15;;
60502;SDS011;51448;51.660;5.824;2024-03-23T07:54:05;14.68;;;3.13;;
60502;SDS011;51448;51.660;5.824;2024-03-23T07:56:33;11.00;;;3.25;;
60502;SDS011;51448;51.660;5.824;2024-03-23T07:59:00;8.32;;;2.88;;
60502;SDS011;51448;51.660;5.824;2024-03-23T08:01:26;11.93;;;3.90;;
60502;SDS011;51448;51.660;5.824;2024-03-23T08:03:53;11.18;;;3.15;;
60502;SDS011;51448;51.660;5.824;2024-03-23T08:06:20;9.38;;;3.17;;
60502;SDS011;51448;51.660;5.824;2024-03-23T08:08:50;9.07;;;2.78;;
60502;SDS011;51448;51.660;5.824;2024-03-23T08:11:29;13.18;;;3.50;;
60502;SDS011;51448;51.660;5.824;2024-03-23T08:13:57;8.10;;;2.70;;
60502;SDS011;51448;51.660;5.824;2024-03-23T08:16:24;14.40;;;3.90;;
60502;SDS011;51448;51.660;5.824;2024-03-23T08:18:51;12.15;;;3.40;;
60502;SDS011;51448;51.660;5.824;2024-03-23T08:21:18;13.05;;;3.83;;
60502;SDS011;51448;51.660;5.824;2024-03-23T08:23:45;17.02;;;3.08;;
60502;SDS011;51448;51.660;5.824;2024-03-23T08:26:12;16.60;;;5.10;;
60502;SDS011;51448;51.660;5.824;2024-03-23T08:28:44;13.48;;;3.15;;
60502;SDS011;51448;51.660;5.824;2024-03-23T08:31:11;8.73;;;3.75;;
60502;SDS011;51448;51.660;5.824;2024-03-23T08:33:39;13.95;;;4.10;;
60502;SDS011;51448;51.660;5.824;2024-03-23T08:36:06;19.30;;;4.25;;
60502;SDS011;51448;51.660;5.824;2024-03-23T08:38:34;12.30;;;3.42;;
60502;SDS011;51448;51.660;5.824;2024-03-23T08:41:05;8.60;;;2.72;;
60502;SDS011;51448;51.660;5.824;2024-03-23T08:43:41;16.67;;;3.22;;
60502;SDS011;51448;51.660;5.824;2024-03-23T08:46:12;14.75;;;3.17;;
60502;SDS011;51448;51.660;5.824;2024-03-23T08:48:42;13.43;;;3.80;;
60502;SDS011;51448;51.660;5.824;2024-03-23T08:51:16;13.65;;;3.58;;
60502;SDS011;51448;51.660;5.824;2024-03-23T08:53:43;9.43;;;3.20;;
60502;SDS011;51448;51.660;5.824;2024-03-23T08:56:10;12.23;;;2.63;;
60502;SDS011;51448;51.660;5.824;2024-03-23T08:58:38;14.32;;;3.33;;
60502;SDS011;51448;51.660;5.824;2024-03-23T09:01:09;11.52;;;3.13;;
60502;SDS011;51448;51.660;5.824;2024-03-23T09:03:39;11.75;;;2.67;;
60502;SDS011;51448;51.660;5.824;2024-03-23T09:06:07;7.22;;;1.67;;
60502;SDS011;51448;51.660;5.824;2024-03-23T09:08:35;7.53;;;1.73;;
60502;SDS011;51448;51.660;5.824;2024-03-23T09:11:10;6.20;;;1.08;;
60502;SDS011;51448;51.660;5.824;2024-03-23T09:13:39;10.90;;;1.40;;
60502;SDS011;51448;51.660;5.824;2024-03-23T09:16:07;7.38;;;2.08;;
60502;SDS011;51448;51.660;5.824;2024-03-23T09:18:36;7.25;;;2.15;;
60502;SDS011;51448;51.660;5.824;2024-03-23T09:21:03;9.80;;;2.05;;
60502;SDS011;51448;51.660;5.824;2024-03-23T09:23:37;9.70;;;2.00;;
60502;SDS011;51448;51.660;5.824;2024-03-23T09:26:04;7.72;;;2.22;;
60502;SDS011;51448;51.660;5.824;2024-03-23T09:28:31;10.98;;;2.38;;
60502;SDS011;51448;51.660;5.824;2024-03-23T09:31:04;5.05;;;1.40;;
60502;SDS011;51448;51.660;5.824;2024-03-23T09:33:33;6.93;;;2.55;;
60502;SDS011;51448;51.660;5.824;2024-03-23T09:36:04;7.28;;;1.85;;
60502;SDS011;51448;51.660;5.824;2024-03-23T09:38:32;11.90;;;1.65;;
60502;SDS011;51448;51.660;5.824;2024-03-23T09:41:00;7.30;;;1.75;;
60502;SDS011;51448;51.660;5.824;2024-03-23T09:43:27;9.73;;;2.58;;
60502;SDS011;51448;51.660;5.824;2024-03-23T09:45:53;8.88;;;1.60;;
60502;SDS011;51448;51.660;5.824;2024-03-23T09:48:20;9.15;;;1.67;;
60502;SDS011;51448;51.660;5.824;2024-03-23T09:50:47;7.53;;;1.80;;
60502;SDS011;51448;51.660;5.824;2024-03-23T09:53:14;7.70;;;2.08;;
60502;SDS011;51448;51.660;5.824;2024-03-23T09:55:42;8.20;;;2.45;;
60502;SDS011;51448;51.660;5.824;2024-03-23T09:58:14;8.23;;;2.53;;
60502;SDS011;51448;51.660;5.824;2024-03-23T10:00:44;9.82;;;2.30;;
60502;SDS011;51448;51.660;5.824;2024-03-23T10:03:11;10.10;;;2.58;;
60502;SDS011;51448;51.660;5.824;2024-03-23T10:05:38;8.07;;;2.22;;
60502;SDS011;51448;51.660;5.824;2024-03-23T10:10:41;11.00;;;2.50;;
60502;SDS011;51448;51.660;5.824;2024-03-23T10:13:08;11.10;;;3.08;;
60502;SDS011;51448;51.660;5.824;2024-03-23T10:15:36;8.95;;;2.63;;
60502;SDS011;51448;51.660;5.824;2024-03-23T10:20:42;10.55;;;2.60;;
60502;SDS011;51448;51.660;5.824;2024-03-23T10:23:15;7.85;;;2.03;;
60502;SDS011;51448;51.660;5.824;2024-03-23T10:25:43;10.95;;;2.13;;
60502;SDS011;51448;51.660;5.824;2024-03-23T10:28:10;10.90;;;2.00;;
60502;SDS011;51448;51.660;5.824;2024-03-23T10:30:37;9.88;;;2.95;;
60502;SDS011;51448;51.660;5.824;2024-03-23T10:33:08;9.85;;;2.92;;
60502;SDS011;51448;51.660;5.824;2024-03-23T10:35:36;8.10;;;2.30;;
60502;SDS011;51448;51.660;5.824;2024-03-23T10:38:05;7.65;;;2.63;;
60502;SDS011;51448;51.660;5.824;2024-03-23T10:40:36;5.78;;;1.58;;
60502;SDS011;51448;51.660;5.824;2024-03-23T10:43:03;7.15;;;1.88;;
60502;SDS011;51448;51.660;5.824;2024-03-23T10:45:30;8.65;;;2.63;;
60502;SDS011;51448;51.660;5.824;2024-03-23T10:47:57;5.03;;;1.65;;
60502;SDS011;51448;51.660;5.824;2024-03-23T10:50:34;7.78;;;1.83;;
60502;SDS011;51448;51.660;5.824;2024-03-23T10:53:01;6.88;;;1.60;;
60502;SDS011;51448;51.660;5.824;2024-03-23T10:55:29;8.50;;;2.47;;
60502;SDS011;51448;51.660;5.824;2024-03-23T10:57:57;8.93;;;1.70;;
60502;SDS011;51448;51.660;5.824;2024-03-23T11:00:26;9.68;;;2.00;;
60502;SDS011;51448;51.660;5.824;2024-03-23T11:02:53;8.93;;;1.95;;
60502;SDS011;51448;51.660;5.824;2024-03-23T11:07:52;5.20;;;1.42;;
60502;SDS011;51448;51.660;5.824;2024-03-23T11:10:27;7.88;;;1.98;;
60502;SDS011;51448;51.660;5.824;2024-03-23T11:13:21;6.63;;;1.75;;
60502;SDS011;51448;51.660;5.824;2024-03-23T11:15:49;7.90;;;1.90;;
60502;SDS011;51448;51.660;5.824;2024-03-23T11:18:22;14.70;;;2.05;;
60502;SDS011;51448;51.660;5.824;2024-03-23T11:20:49;11.07;;;2.17;;
60502;SDS011;51448;51.660;5.824;2024-03-23T11:23:28;8.50;;;2.00;;
60502;SDS011;51448;51.660;5.824;2024-03-23T11:25:55;7.32;;;1.60;;
60502;SDS011;51448;51.660;5.824;2024-03-23T11:28:21;9.35;;;2.53;;
60502;SDS011;51448;51.660;5.824;2024-03-23T11:30:48;7.90;;;2.40;;
60502;SDS011;51448;51.660;5.824;2024-03-23T11:33:15;9.00;;;2.17;;
60502;SDS011;51448;51.660;5.824;2024-03-23T11:35:42;7.38;;;1.88;;
60502;SDS011;51448;51.660;5.824;2024-03-23T11:38:15;10.07;;;1.90;;
60502;SDS011;51448;51.660;5.824;2024-03-23T11:40:47;7.47;;;1.45;;
60502;SDS011;51448;51.660;5.824;2024-03-23T11:43:19;6.28;;;1.63;;
60502;SDS011;51448;51.660;5.824;2024-03-23T11:45:52;6.07;;;1.83;;
60502;SDS011;51448;51.660;5.824;2024-03-23T11:48:20;4.83;;;1.00;;
60502;SDS011;51448;51.660;5.824;2024-03-23T11:50:58;4.13;;;1.23;;
60502;SDS011;51448;51.660;5.824;2024-03-23T11:53:25;7.78;;;1.90;;
60502;SDS011;51448;51.660;5.824;2024-03-23T11:55:56;3.40;;;1.00;;
60502;SDS011;51448;51.660;5.824;2024-03-23T11:58:25;6.13;;;1.55;;
60502;SDS011;51448;51.660;5.824;2024-03-23T12:01:00;4.80;;;1.25;;
60502;SDS011;51448;51.660;5.824;2024-03-23T12:03:29;5.63;;;1.52;;
60502;SDS011;51448;51.660;5.824;2024-03-23T12:05:59;12.43;;;1.83;;
60502;SDS011;51448;51.660;5.824;2024-03-23T12:08:29;4.78;;;1.52;;
60502;SDS011;51448;51.660;5.824;2024-03-23T12:11:06;5.00;;;1.38;;
60502;SDS011;51448;51.660;5.824;2024-03-23T12:13:37;3.63;;;0.90;;
60502;SDS011;51448;51.660;5.824;2024-03-23T12:16:11;4.07;;;0.93;;
60502;SDS011;51448;51.660;5.824;2024-03-23T12:18:40;3.28;;;0.98;;
60502;SDS011;51448;51.660;5.824;2024-03-23T12:21:08;4.45;;;1.00;;
60502;SDS011;51448;51.660;5.824;2024-03-23T12:23:38;4.68;;;1.17;;
60502;SDS011;51448;51.660;5.824;2024-03-23T12:26:06;3.50;;;0.90;;
60502;SDS011;51448;51.660;5.824;2024-03-23T12:28:33;4.25;;;1.35;;
60502;SDS011;51448;51.660;5.824;2024-03-23T12:31:00;7.47;;;1.20;;
60502;SDS011;51448;51.660;5.824;2024-03-23T12:33:26;3.08;;;1.42;;
60502;SDS011;51448;51.660;5.824;2024-03-23T12:35:53;4.65;;;1.67;;
60502;SDS011;51448;51.660;5.824;2024-03-23T12:38:20;12.32;;;2.65;;
60502;SDS011;51448;51.660;5.824;2024-03-23T12:40:47;5.40;;;1.60;;
60502;SDS011;51448;51.660;5.824;2024-03-23T12:43:17;5.32;;;1.95;;
60502;SDS011;51448;51.660;5.824;2024-03-23T12:45:48;8.15;;;1.98;;
60502;SDS011;51448;51.660;5.824;2024-03-23T12:48:16;8.00;;;1.65;;
60502;SDS011;51448;51.660;5.824;2024-03-23T12:50:43;6.95;;;1.65;;
60502;SDS011;51448;51.660;5.824;2024-03-23T12:53:09;4.13;;;1.10;;
60502;SDS011;51448;51.660;5.824;2024-03-23T12:55:36;8.68;;;1.75;;
60502;SDS011;51448;51.660;5.824;2024-03-23T12:58:04;4.88;;;1.50;;
60502;SDS011;51448;51.660;5.824;2024-03-23T13:00:31;8.90;;;1.60;;
60502;SDS011;51448;51.660;5.824;2024-03-23T13:02:57;8.80;;;1.90;;
60502;SDS011;51448;51.660;5.824;2024-03-23T13:05:24;7.68;;;3.33;;
60502;SDS011;51448;51.660;5.824;2024-03-23T13:07:50;9.00;;;2.60;;
60502;SDS011;51448;51.660;5.824;2024-03-23T13:10:17;7.50;;;1.77;;
60502;SDS011;51448;51.660;5.824;2024-03-23T13:12:44;7.22;;;2.05;;
60502;SDS011;51448;51.660;5.824;2024-03-23T13:15:10;12.05;;;1.90;;
60502;SDS011;51448;51.660;5.824;2024-03-23T13:17:37;8.02;;;2.20;;
60502;SDS011;51448;51.660;5.824;2024-03-23T13:20:04;10.40;;;1.88;;
60502;SDS011;51448;51.660;5.824;2024-03-23T13:22:31;9.05;;;3.08;;
60502;SDS011;51448;51.660;5.824;2024-03-23T13:24:58;11.02;;;2.80;;
60502;SDS011;51448;51.660;5.824;2024-03-23T13:27:26;12.15;;;3.00;;
60502;SDS011;51448;51.660;5.824;2024-03-23T13:29:52;9.63;;;1.52;;
60502;SDS011;51448;51.660;5.824;2024-03-23T13:32:19;6.75;;;1.52;;
60502;SDS011;51448;51.660;5.824;2024-03-23T13:34:46;8.15;;;1.42;;
60502;SDS011;51448;51.660;5.824;2024-03-23T13:37:16;5.38;;;1.20;;
60502;SDS011;51448;51.660;5.824;2024-03-23T13:39:43;6.55;;;2.10;;
60502;SDS011;51448;51.660;5.824;2024-03-23T13:42:09;9.02;;;2.63;;
60502;SDS011;51448;51.660;5.824;2024-03-23T13:44:38;7.18;;;2.25;;
60502;SDS011;51448;51.660;5.824;2024-03-23T13:47:05;6.97;;;1.30;;
60502;SDS011;51448;51.660;5.824;2024-03-23T13:49:31;5.57;;;1.38;;
60502;SDS011;51448;51.660;5.824;2024-03-23T13:51:58;8.73;;;1.85;;
60502;SDS011;51448;51.660;5.824;2024-03-23T13:54:26;6.28;;;1.45;;
60502;SDS011;51448;51.660;5.824;2024-03-23T13:56:54;7.57;;;1.95;;
60502;SDS011;51448;51.660;5.824;2024-03-23T13:59:22;7.40;;;1.50;;
60502;SDS011;51448;51.660;5.824;2024-03-23T14:01:50;7.35;;;1.45;;
60502;SDS011;51448;51.660;5.824;2024-03-23T14:04:17;6.00;;;1.52;;
60502;SDS011;51448;51.660;5.824;2024-03-23T14:06:47;8.27;;;1.60;;
60502;SDS011;51448;51.660;5.824;2024-03-23T14:09:14;8.40;;;2.50;;
60502;SDS011;51448;51.660;5.824;2024-03-23T14:11:46;7.97;;;1.88;;
60502;SDS011;51448;51.660;5.824;2024-03-23T14:14:13;9.30;;;2.00;;
60502;SDS011;51448;51.660;5.824;2024-03-23T14:16:43;7.90;;;2.20;;
60502;SDS011;51448;51.660;5.824;2024-03-23T14:19:10;10.20;;;2.50;;
60502;SDS011;51448;51.660;5.824;2024-03-23T14:21:37;7.13;;;1.92;;
60502;SDS011;51448;51.660;5.824;2024-03-23T14:24:04;7.55;;;1.90;;
60502;SDS011;51448;51.660;5.824;2024-03-23T14:26:31;9.32;;;1.80;;
60502;SDS011;51448;51.660;5.824;2024-03-23T14:28:58;9.70;;;2.20;;
60502;SDS011;51448;51.660;5.824;2024-03-23T14:31:24;9.27;;;2.25;;
60502;SDS011;51448;51.660;5.824;2024-03-23T14:33:51;7.20;;;2.03;;
60502;SDS011;51448;51.660;5.824;2024-03-23T14:36:18;10.02;;;1.88;;
60502;SDS011;51448;51.660;5.824;2024-03-23T14:38:48;7.32;;;1.55;;
60502;SDS011;51448;51.660;5.824;2024-03-23T14:41:15;8.70;;;2.08;;
60502;SDS011;51448;51.660;5.824;2024-03-23T14:43:42;8.52;;;1.58;;
60502;SDS011;51448;51.660;5.824;2024-03-23T14:46:15;8.98;;;2.58;;
60502;SDS011;51448;51.660;5.824;2024-03-23T14:48:43;9.35;;;2.08;;
60502;SDS011;51448;51.660;5.824;2024-03-23T14:51:10;11.25;;;1.98;;
60502;SDS011;51448;51.660;5.824;2024-03-23T14:53:38;6.70;;;1.42;;
60502;SDS011;51448;51.660;5.824;2024-03-23T14:56:07;10.48;;;2.00;;
60502;SDS011;51448;51.660;5.824;2024-03-23T14:58:38;6.60;;;1.42;;
60502;SDS011;51448;51.660;5.824;2024-03-23T15:01:05;6.55;;;1.52;;
60502;SDS011;51448;51.660;5.824;2024-03-23T15:03:36;14.03;;;2.60;;
60502;SDS011;51448;51.660;5.824;2024-03-23T15:06:05;7.80;;;1.85;;
60502;SDS011;51448;51.660;5.824;2024-03-23T15:08:40;5.90;;;1.70;;
60502;SDS011;51448;51.660;5.824;2024-03-23T15:11:16;8.77;;;1.90;;
60502;SDS011;51448;51.660;5.824;2024-03-23T15:13:45;13.60;;;2.55;;
60502;SDS011;51448;51.660;5.824;2024-03-23T15:16:17;11.00;;;2.60;;
60502;SDS011;51448;51.660;5.824;2024-03-23T15:18:46;11.55;;;3.10;;
60502;SDS011;51448;51.660;5.824;2024-03-23T15:21:13;13.25;;;2.72;;
60502;SDS011;51448;51.660;5.824;2024-03-23T15:23:45;12.88;;;2.70;;
60502;SDS011;51448;51.660;5.824;2024-03-23T15:26:12;8.27;;;1.85;;
60502;SDS011;51448;51.660;5.824;2024-03-23T15:28:39;8.15;;;1.33;;
60502;SDS011;51448;51.660;5.824;2024-03-23T15:31:24;4.75;;;1.17;;
60502;SDS011;51448;51.660;5.824;2024-03-23T15:33:51;4.07;;;0.82;;
60502;SDS011;51448;51.660;5.824;2024-03-23T15:36:31;4.70;;;1.08;;
60502;SDS011;51448;51.660;5.824;2024-03-23T15:38:58;3.50;;;0.85;;
60502;SDS011;51448;51.660;5.824;2024-03-23T15:41:40;3.90;;;0.90;;
60502;SDS011;51448;51.660;5.824;2024-03-23T15:44:06;7.32;;;2.30;;
60502;SDS011;51448;51.660;5.824;2024-03-23T15:46:33;4.85;;;0.68;;